Time;durP1;ratioP1;P1;durP2;ratioP2;P2;SDS_P1;SDS_P2;PMS_P1;PMS_P2;Temp;Humidity;BMP_temperature;BMP_pressure;BME280_temperature;BME280_humidity;BME280_pressure;Samples;Min_cycle;Max_cycle;Signal;HPM_P1;HPM_P2
2021/12/07 00:02:22;;;;;;;30.17;15.32;;;0.90;99.90;;;;;;5014388;28;20444;-45
2021/12/07 00:04:47;;;;;;;30.70;16.05;;;0.90;99.90;;;;;;5014326;28;20117;-43
2021/12/07 00:07:13;;;;;;;31.08;14.18;;;0.90;99.90;;;;;;5015475;28;20071;-46
2021/12/07 00:09:39;;;;;;;33.42;17.02;;;0.90;99.90;;;;;;5013398;28;20037;-46
2021/12/07 00:12:06;;;;;;;33.65;16.92;;;0.90;99.90;;;;;;5014462;28;20030;-46
2021/12/07 00:14:38;;;;;;;33.88;17.33;;;0.80;99.90;;;;;;5014261;28;20033;-47
2021/12/07 00:17:04;;;;;;;32.50;15.88;;;0.80;99.90;;;;;;5014434;28;20535;-44
2021/12/07 00:19:30;;;;;;;32.22;17.05;;;0.80;99.90;;;;;;5014357;28;20092;-45
2021/12/07 00:21:55;;;;;;;36.25;17.60;;;0.80;99.90;;;;;;5014006;28;20156;-47
2021/12/07 00:24:21;;;;;;;33.20;16.73;;;0.80;99.90;;;;;;5012643;28;20041;-46
2021/12/07 00:26:47;;;;;;;33.22;15.40;;;0.80;99.90;;;;;;5014051;28;20037;-44
2021/12/07 00:29:14;;;;;;;32.72;16.27;;;0.80;99.90;;;;;;5014082;28;20040;-45
2021/12/07 00:31:50;;;;;;;35.08;17.67;;;0.70;99.90;;;;;;5013903;28;20038;-46
2021/12/07 00:34:39;;;;;;;36.05;17.15;;;0.70;99.90;;;;;;5013719;28;20029;-43
2021/12/07 00:37:05;;;;;;;32.65;15.85;;;0.70;99.90;;;;;;5013883;28;20504;-44
2021/12/07 00:39:31;;;;;;;41.08;16.67;;;0.70;99.90;;;;;;4995537;28;20029;-47
2021/12/07 00:41:58;;;;;;;36.40;16.75;;;0.70;99.90;;;;;;5013756;28;20361;-47
2021/12/07 00:44:25;;;;;;;31.08;15.82;;;0.70;99.90;;;;;;5013710;28;20033;-47
2021/12/07 00:46:52;;;;;;;35.47;15.73;;;0.70;99.90;;;;;;5013485;28;20492;-46
2021/12/07 00:49:17;;;;;;;36.60;18.55;;;0.60;99.90;;;;;;5013522;28;20409;-46
2021/12/07 00:51:43;;;;;;;33.08;15.95;;;0.60;99.90;;;;;;5013587;28;20032;-47
2021/12/07 00:54:10;;;;;;;28.70;14.63;;;0.60;99.90;;;;;;5012640;28;20026;-46
2021/12/07 00:56:36;;;;;;;31.08;15.25;;;0.60;99.90;;;;;;5013543;28;20030;-50
2021/12/07 00:59:02;;;;;;;31.58;15.77;;;0.60;99.90;;;;;;5013610;28;20030;-46
2021/12/07 01:01:27;;;;;;;30.75;16.27;;;0.50;99.90;;;;;;5013189;28;20084;-46
2021/12/07 01:03:53;;;;;;;31.85;15.30;;;0.50;99.90;;;;;;5013363;28;20650;-48
2021/12/07 01:06:32;;;;;;;32.80;15.52;;;0.50;99.90;;;;;;5013441;28;20424;-48
2021/12/07 01:09:16;;;;;;;36.25;16.33;;;0.40;99.90;;;;;;5023694;28;20029;-48
2021/12/07 01:25:33;;;;;;;26.42;12.95;;;0.00;99.90;;;;;;5033995;28;20063;-46
2021/12/07 01:28:06;;;;;;;24.55;11.27;;;0.00;99.90;;;;;;5015937;28;20030;-46
2021/12/07 01:30:44;;;;;;;25.25;11.43;;;-0.10;99.90;;;;;;5033724;28;20032;-45
2021/12/07 01:33:28;;;;;;;26.85;11.63;;;-0.20;99.90;;;;;;5033355;28;20021;-46
2021/12/07 01:38:41;;;;;;;22.15;10.18;;;-0.30;99.90;;;;;;5031944;28;20028;-44
2021/12/07 01:44:14;;;;;;;25.73;11.05;;;-0.40;99.90;;;;;;5033282;28;20423;-45
2021/12/07 01:46:52;;;;;;;24.73;12.77;;;-0.50;99.90;;;;;;5033069;28;20374;-43
2021/12/07 02:00:12;;;;;;;25.42;12.52;;;-0.90;99.90;;;;;;5033410;28;20388;-44
2021/12/07 02:02:38;;;;;;;30.23;11.90;;;-0.90;99.90;;;;;;5028410;28;20053;-44
2021/12/07 02:05:05;;;;;;;30.27;13.63;;;-1.00;99.90;;;;;;5013409;28;20042;-46
2021/12/07 02:07:32;;;;;;;26.77;12.82;;;-1.10;99.90;;;;;;5013223;28;20084;-43
2021/12/07 02:10:04;;;;;;;25.52;11.88;;;-1.10;99.90;;;;;;5030685;28;20032;-44
2021/12/07 02:12:33;;;;;;;29.98;13.10;;;-1.10;99.90;;;;;;5032557;28;20124;-43
2021/12/07 02:14:58;;;;;;;31.98;12.63;;;-1.10;99.90;;;;;;5032899;28;20079;-46
2021/12/07 02:17:26;;;;;;;25.98;12.82;;;-1.20;99.90;;;;;;5032592;28;20041;-46
2021/12/07 02:19:51;;;;;;;26.83;12.88;;;-1.20;99.90;;;;;;5032911;28;20021;-45
2021/12/07 02:22:18;;;;;;;28.83;13.23;;;-1.20;99.90;;;;;;5032661;28;20017;-48
2021/12/07 02:24:44;;;;;;;36.65;14.38;;;-1.30;99.90;;;;;;5031733;28;20025;-44
2021/12/07 02:27:09;;;;;;;33.70;16.17;;;-1.30;99.90;;;;;;5032602;28;20485;-44
2021/12/07 02:29:35;;;;;;;30.67;14.35;;;-1.30;99.90;;;;;;5032685;28;20025;-44
2021/12/07 02:32:02;;;;;;;29.13;13.73;;;-1.30;99.90;;;;;;5012086;28;20032;-45
2021/12/07 02:34:27;;;;;;;40.25;16.13;;;-1.30;99.90;;;;;;5032282;28;20025;-43
2021/12/07 02:36:55;;;;;;;41.42;19.35;;;-1.30;99.90;;;;;;5014915;28;20033;-45
2021/12/07 02:39:35;;;;;;;37.35;16.80;;;-1.40;99.90;;;;;;5031672;28;20021;-43
2021/12/07 02:42:04;;;;;;;40.45;17.80;;;-1.40;99.90;;;;;;5032529;28;20036;-45
2021/12/07 02:44:30;;;;;;;37.60;15.20;;;-1.40;99.90;;;;;;5032388;28;20071;-49
2021/12/07 02:46:56;;;;;;;39.03;17.50;;;-1.40;99.90;;;;;;5032598;28;20041;-51
2021/12/07 02:49:21;;;;;;;32.45;15.35;;;-1.40;99.90;;;;;;5037864;28;20511;-45
2021/12/07 02:51:47;;;;;;;34.47;15.27;;;-1.40;99.90;;;;;;5039094;28;20025;-49
2021/12/07 02:54:12;;;;;;;40.25;19.08;;;-1.40;99.90;;;;;;5037655;28;20116;-50
2021/12/07 02:56:38;;;;;;;38.75;16.95;;;-1.30;99.90;;;;;;5038901;28;20440;-48
2021/12/07 02:59:04;;;;;;;35.83;16.08;;;-1.20;99.90;;;;;;5039061;28;20034;-46
2021/12/07 03:01:35;;;;;;;42.95;18.65;;;-1.10;99.90;;;;;;5038889;28;20033;-46
2021/12/07 03:04:09;;;;;;;49.42;20.77;;;-1.00;99.90;;;;;;5023040;28;20028;-45
2021/12/07 03:06:48;;;;;;;49.13;20.92;;;-0.90;99.90;;;;;;5019053;28;20068;-45
2021/12/07 03:09:48;;;;;;;49.38;21.83;;;-0.80;99.90;;;;;;5030702;28;20029;-47
2021/12/07 03:28:28;;;;;;;36.97;17.08;;;-0.50;99.90;;;;;;5038657;28;20025;-44
2021/12/07 03:30:54;;;;;;;35.00;15.63;;;-0.40;99.90;;;;;;5038808;28;20041;-48
2021/12/07 03:33:21;;;;;;;39.38;19.67;;;-0.40;99.90;;;;;;5038548;28;20022;-46
2021/12/07 03:35:46;;;;;;;40.25;18.42;;;-0.40;99.90;;;;;;5038571;28;20029;-43
2021/12/07 03:38:12;;;;;;;37.13;17.15;;;-0.30;99.90;;;;;;5037656;28;20025;-48
2021/12/07 03:40:39;;;;;;;37.40;16.40;;;-0.30;99.90;;;;;;5038599;28;20445;-46
2021/12/07 03:43:06;;;;;;;35.28;17.58;;;-0.30;99.90;;;;;;5038565;28;20053;-46
2021/12/07 03:45:32;;;;;;;36.17;17.25;;;-0.30;99.90;;;;;;5038541;28;20021;-43
2021/12/07 03:48:00;;;;;;;42.90;20.13;;;-0.20;99.90;;;;;;5038470;28;20542;-46
2021/12/07 03:50:27;;;;;;;42.33;19.92;;;-0.20;99.90;;;;;;5038076;28;20394;-48
2021/12/07 03:52:52;;;;;;;37.95;18.42;;;-0.20;99.90;;;;;;5037390;28;20029;-44
2021/12/07 03:55:19;;;;;;;33.80;17.80;;;-0.20;99.90;;;;;;5038476;28;20083;-44
2021/12/07 03:57:45;;;;;;;43.97;20.10;;;-0.10;99.90;;;;;;5038323;28;20030;-44
2021/12/07 04:00:16;;;;;;;39.55;19.60;;;-0.10;99.90;;;;;;5017933;28;20025;-44
2021/12/07 04:02:43;;;;;;;45.47;22.77;;;-0.10;99.90;;;;;;5030170;28;20397;-44
2021/12/07 04:05:14;;;;;;;43.53;19.80;;;-0.10;99.90;;;;;;5015350;28;20523;-48
2021/12/07 04:07:40;;;;;;;53.38;23.40;;;0.00;99.90;;;;;;5014518;28;20017;-51
2021/12/07 04:10:08;;;;;;;45.92;22.13;;;0.00;99.90;;;;;;5035040;28;20116;-46
2021/12/07 04:12:34;;;;;;;47.40;21.23;;;-0.10;99.90;;;;;;5035012;28;20037;-46
2021/12/07 04:15:00;;;;;;;44.13;21.27;;;0.00;99.90;;;;;;5035197;28;20108;-47
2021/12/07 04:17:26;;;;;;;44.78;22.10;;;0.00;99.90;;;;;;5034994;28;20025;-44
2021/12/07 04:19:51;;;;;;;47.67;21.55;;;-0.10;99.90;;;;;;5034784;28;20144;-45
2021/12/07 04:22:17;;;;;;;40.92;20.63;;;-0.10;99.90;;;;;;5034918;28;20104;-48
2021/12/07 04:24:43;;;;;;;45.75;20.63;;;0.00;99.90;;;;;;5033819;28;20111;-50
2021/12/07 04:27:08;;;;;;;43.85;19.02;;;0.00;99.90;;;;;;5034826;28;20048;-44
2021/12/07 04:29:34;;;;;;;44.85;22.42;;;0.00;99.90;;;;;;5017257;28;20034;-43
2021/12/07 04:32:00;;;;;;;40.58;20.80;;;0.00;99.90;;;;;;5034880;28;20053;-46
2021/12/07 04:34:25;;;;;;;44.20;20.83;;;0.00;99.90;;;;;;5034358;28;20029;-51
2021/12/07 04:36:51;;;;;;;47.90;21.45;;;0.00;99.90;;;;;;5034609;28;20100;-46
2021/12/07 04:39:17;;;;;;;40.95;20.75;;;0.00;99.90;;;;;;5033664;28;20084;-46
2021/12/07 04:41:45;;;;;;;44.72;22.83;;;0.00;99.90;;;;;;5034649;28;20419;-47
2021/12/07 04:44:10;;;;;;;43.25;21.90;;;0.00;99.90;;;;;;5034530;28;20060;-46
2021/12/07 04:59:45;;;;;;;41.22;20.48;;;0.00;99.90;;;;;;5034474;28;20096;-45
2021/12/07 05:02:11;;;;;;;40.58;20.13;;;0.00;99.90;;;;;;5033657;28;20025;-44
2021/12/07 05:04:37;;;;;;;40.95;20.50;;;0.00;99.90;;;;;;5014247;28;20385;-45
2021/12/07 05:07:16;;;;;;;42.33;20.52;;;-0.10;99.90;;;;;;5014373;28;20022;-47
2021/12/07 05:14:43;;;;;;;40.55;22.17;;;-0.10;99.90;;;;;;5033729;28;20464;-48
2021/12/07 05:17:44;;;;;;;39.10;20.33;;;-0.10;99.90;;;;;;5034084;28;20025;-43
2021/12/07 05:34:29;;;;;;;41.25;21.60;;;-0.30;99.90;;;;;;5013950;28;20045;-47
2021/12/07 05:39:35;;;;;;;50.92;22.65;;;-0.40;99.90;;;;;;5012584;28;20033;-47
2021/12/07 05:42:01;;;;;;;45.72;21.35;;;-0.40;99.90;;;;;;5013621;28;20381;-44
2021/12/07 05:44:28;;;;;;;40.50;19.77;;;-0.30;99.90;;;;;;5013482;28;20038;-44
2021/12/07 05:46:53;;;;;;;43.40;21.98;;;-0.40;99.90;;;;;;5013281;28;20099;-44
2021/12/07 05:49:19;;;;;;;48.30;23.52;;;-0.40;99.90;;;;;;5013379;28;20501;-46
2021/12/07 05:51:44;;;;;;;47.53;24.13;;;-0.40;99.90;;;;;;5013156;28;20064;-45
2021/12/07 05:54:10;;;;;;;48.47;23.02;;;-0.40;99.90;;;;;;5012251;28;20030;-46
2021/12/07 05:56:36;;;;;;;48.42;23.10;;;-0.40;99.90;;;;;;5013327;28;20041;-47
2021/12/07 05:59:01;;;;;;;46.63;23.13;;;-0.50;99.90;;;;;;5013145;28;20095;-46
2021/12/07 06:01:27;;;;;;;44.50;22.38;;;-0.50;99.90;;;;;;4995607;28;20033;-46
2021/12/07 06:03:52;;;;;;;47.10;22.25;;;-0.50;99.90;;;;;;5012752;28;20056;-43
2021/12/07 06:06:18;;;;;;;44.55;22.77;;;-0.50;99.90;;;;;;5012962;28;20030;-43
2021/12/07 06:08:43;;;;;;;43.10;20.98;;;-0.50;99.90;;;;;;5011931;28;20026;-43
2021/12/07 06:11:09;;;;;;;43.78;21.30;;;-0.50;99.90;;;;;;5013086;28;20387;-46
2021/12/07 06:13:35;;;;;;;47.60;21.83;;;-0.60;99.90;;;;;;5012922;28;20076;-46
2021/12/07 06:16:06;;;;;;;41.83;19.75;;;-0.60;99.90;;;;;;4995516;28;20026;-43
2021/12/07 06:18:32;;;;;;;43.10;21.95;;;-0.60;99.90;;;;;;5013015;28;20025;-44
2021/12/07 06:20:57;;;;;;;46.97;22.10;;;-0.60;99.90;;;;;;5012875;28;20413;-48
2021/12/07 06:23:23;;;;;;;45.65;22.75;;;-0.60;99.90;;;;;;5001692;28;20022;-47
2021/12/07 06:25:49;;;;;;;43.50;22.02;;;-0.60;99.90;;;;;;5012498;28;20481;-44
2021/12/07 06:28:15;;;;;;;43.58;22.67;;;-0.70;99.90;;;;;;5012952;28;20041;-46
2021/12/07 06:30:42;;;;;;;40.00;19.85;;;-0.70;99.90;;;;;;5010082;28;20033;-48
2021/12/07 06:33:08;;;;;;;40.25;20.50;;;-0.60;99.90;;;;;;5012105;28;20030;-48
2021/12/07 06:35:33;;;;;;;44.53;22.67;;;-0.60;99.90;;;;;;5012320;28;20412;-45
2021/12/07 06:37:59;;;;;;;43.35;22.75;;;-0.60;99.90;;;;;;5011475;28;20059;-48
2021/12/07 06:40:24;;;;;;;43.03;21.17;;;-0.70;99.90;;;;;;5012386;28;20229;-44
2021/12/07 06:42:50;;;;;;;44.28;22.95;;;-0.70;99.90;;;;;;5012527;28;20029;-44
2021/12/07 06:45:15;;;;;;;45.08;23.33;;;-0.70;99.90;;;;;;5012511;28;20389;-47
2021/12/07 06:47:41;;;;;;;46.13;23.45;;;-0.70;99.90;;;;;;5012647;28;20065;-46
2021/12/07 06:50:09;;;;;;;50.13;23.85;;;-0.70;99.90;;;;;;5012192;28;20050;-45
2021/12/07 06:52:35;;;;;;;48.28;23.02;;;-0.60;99.90;;;;;;5011867;28;20033;-46
2021/12/07 06:55:02;;;;;;;47.42;24.38;;;-0.60;99.90;;;;;;5012064;28;20500;-46
2021/12/07 06:57:28;;;;;;;53.17;23.80;;;-0.70;99.90;;;;;;5025317;28;20103;-48
2021/12/07 06:59:54;;;;;;;45.80;22.52;;;-0.60;99.90;;;;;;5031988;28;20033;-49
2021/12/07 07:02:20;;;;;;;51.75;23.88;;;-0.70;99.90;;;;;;5030524;28;20921;-44
2021/12/07 07:04:45;;;;;;;51.88;25.05;;;-0.70;99.90;;;;;;5012295;28;20043;-46
2021/12/07 07:07:12;;;;;;;51.85;23.90;;;-0.60;99.90;;;;;;5012568;28;20523;-50
2021/12/07 07:09:37;;;;;;;52.65;24.17;;;-0.60;99.90;;;;;;5011378;28;20034;-50
2021/12/07 07:12:03;;;;;;;51.50;23.52;;;-0.60;99.90;;;;;;4994865;28;20465;-44
2021/12/07 07:14:29;;;;;;;52.88;25.65;;;-0.60;99.90;;;;;;5012257;28;20449;-47
2021/12/07 07:16:54;;;;;;;48.80;22.40;;;-0.60;99.90;;;;;;5012459;28;20026;-44
2021/12/07 07:19:20;;;;;;;53.70;23.23;;;-0.70;99.90;;;;;;5012166;28;20040;-43
2021/12/07 07:21:45;;;;;;;55.22;27.83;;;-0.60;99.90;;;;;;5012443;28;20026;-47
2021/12/07 07:24:11;;;;;;;50.38;22.60;;;-0.60;99.90;;;;;;5011075;28;20045;-44
2021/12/07 07:26:37;;;;;;;46.78;22.65;;;-0.60;99.90;;;;;;5012012;28;20030;-44
2021/12/07 07:29:03;;;;;;;38.13;20.23;;;-0.50;99.90;;;;;;5012331;28;20064;-46
2021/12/07 07:31:29;;;;;;;50.03;22.65;;;-0.50;99.90;;;;;;5012288;28;20030;-43
2021/12/07 07:33:55;;;;;;;50.33;24.25;;;-0.50;99.90;;;;;;5012035;28;20026;-43
2021/12/07 07:36:20;;;;;;;43.72;22.10;;;-0.50;99.90;;;;;;5015177;28;20021;-43
2021/12/07 07:38:46;;;;;;;56.25;25.20;;;-0.40;99.90;;;;;;5015132;28;20445;-46
2021/12/07 07:41:11;;;;;;;45.65;22.08;;;-0.40;99.90;;;;;;5015707;28;20037;-44
2021/12/07 07:43:37;;;;;;;47.08;21.83;;;-0.40;99.90;;;;;;5016021;28;20388;-44
2021/12/07 07:46:03;;;;;;;49.20;23.52;;;-0.30;99.90;;;;;;5015681;28;20021;-43
2021/12/07 07:48:28;;;;;;;52.83;24.88;;;-0.30;99.90;;;;;;5015655;28;20024;-43
2021/12/07 07:50:55;;;;;;;52.33;24.67;;;-0.40;99.90;;;;;;5015517;28;20040;-44
2021/12/07 07:53:21;;;;;;;54.03;26.13;;;-0.30;99.90;;;;;;5014926;28;20094;-46
2021/12/07 07:55:48;;;;;;;52.22;25.40;;;-0.40;99.90;;;;;;5015444;28;20061;-43
2021/12/07 07:58:13;;;;;;;52.92;25.83;;;-0.30;99.90;;;;;;5015743;28;20029;-43
2021/12/07 08:00:41;;;;;;;52.97;25.60;;;-0.30;99.90;;;;;;5015560;28;20073;-46
2021/12/07 08:03:07;;;;;;;54.45;25.73;;;-0.30;99.90;;;;;;5015305;28;20105;-44
2021/12/07 08:05:33;;;;;;;58.13;27.58;;;-0.30;99.90;;;;;;5015503;28;20068;-46
2021/12/07 08:07:59;;;;;;;55.78;25.92;;;-0.30;99.90;;;;;;5014496;28;20532;-49
2021/12/07 08:10:29;;;;;;;55.63;27.02;;;-0.30;99.90;;;;;;5015263;28;20117;-46
2021/12/07 08:13:03;;;;;;;56.22;27.83;;;-0.30;99.90;;;;;;5015445;28;20496;-44
2021/12/07 08:15:35;;;;;;;57.33;26.10;;;-0.30;99.90;;;;;;5015130;28;20034;-46
2021/12/07 08:18:01;;;;;;;50.60;24.17;;;-0.30;99.90;;;;;;5015235;28;20026;-46
2021/12/07 08:20:28;;;;;;;48.40;23.83;;;-0.20;99.90;;;;;;5015217;28;20466;-45
2021/12/07 08:22:53;;;;;;;53.10;24.02;;;-0.30;99.90;;;;;;5014204;28;20044;-43
2021/12/07 08:25:19;;;;;;;51.35;24.30;;;-0.20;99.90;;;;;;5014962;28;20034;-45
2021/12/07 08:27:44;;;;;;;47.60;24.30;;;-0.20;99.90;;;;;;5015193;28;20113;-43
2021/12/07 08:30:14;;;;;;;54.05;25.90;;;-0.20;99.90;;;;;;5014828;28;20108;-44
2021/12/07 08:32:44;;;;;;;48.58;24.27;;;-0.20;99.90;;;;;;5014919;28;20041;-46
2021/12/07 08:35:14;;;;;;;46.13;23.95;;;-0.10;99.90;;;;;;4997124;28;20034;-45
2021/12/07 08:37:40;;;;;;;47.92;24.35;;;-0.10;99.90;;;;;;5014064;28;20037;-44
2021/12/07 08:40:06;;;;;;;47.53;22.63;;;-0.10;99.90;;;;;;5014762;28;20030;-43
2021/12/07 08:42:32;;;;;;;53.95;25.33;;;-0.10;99.90;;;;;;5012620;28;20477;-46
2021/12/07 08:44:57;;;;;;;48.35;24.30;;;-0.10;99.90;;;;;;5014400;28;20030;-45
2021/12/07 08:47:23;;;;;;;43.20;21.17;;;0.00;99.90;;;;;;5014204;28;20104;-44
2021/12/07 08:49:48;;;;;;;43.92;21.98;;;0.00;99.90;;;;;;5014506;28;20120;-45
2021/12/07 08:52:14;;;;;;;48.47;23.55;;;0.10;99.90;;;;;;5014611;28;20496;-45
2021/12/07 08:59:52;;;;;;;54.65;25.25;;;0.20;99.90;;;;;;5014606;28;20061;-43
2021/12/07 09:02:21;;;;;;;51.17;26.05;;;0.20;99.90;;;;;;5014265;28;20025;-43
2021/12/07 09:04:49;;;;;;;50.17;25.67;;;0.10;99.90;;;;;;5014446;28;20053;-45
2021/12/07 09:07:16;;;;;;;50.85;26.02;;;0.10;99.90;;;;;;5014449;28;20022;-45
2021/12/07 09:09:43;;;;;;;55.00;26.58;;;0.10;99.90;;;;;;5013311;28;20042;-44
2021/12/07 09:12:11;;;;;;;54.47;27.17;;;0.10;99.90;;;;;;5013997;28;20029;-44
2021/12/07 09:14:38;;;;;;;53.53;26.70;;;0.00;99.90;;;;;;5014160;28;20421;-44
2021/12/07 09:17:05;;;;;;;60.67;28.02;;;0.00;99.90;;;;;;5014060;28;20189;-43
2021/12/07 09:19:31;;;;;;;55.00;26.98;;;0.00;99.90;;;;;;4996707;28;20045;-44
2021/12/07 09:21:57;;;;;;;54.95;28.10;;;0.00;99.90;;;;;;5013997;28;20033;-44
2021/12/07 09:24:23;;;;;;;55.95;26.92;;;0.10;99.90;;;;;;5013034;28;20484;-46
2021/12/07 09:26:50;;;;;;;56.42;27.63;;;0.10;99.90;;;;;;5013810;28;20029;-45
2021/12/07 09:29:15;;;;;;;49.00;23.95;;;0.10;99.90;;;;;;5013911;28;20049;-44
2021/12/07 09:31:41;;;;;;;56.53;27.73;;;0.20;99.90;;;;;;5013893;28;20022;-44
2021/12/07 09:34:07;;;;;;;55.58;26.70;;;0.10;99.90;;;;;;4996116;28;20062;-43
2021/12/07 09:36:34;;;;;;;55.58;28.50;;;0.10;99.90;;;;;;5013678;28;20045;-45
2021/12/07 09:39:00;;;;;;;53.53;28.20;;;0.20;99.90;;;;;;5012695;28;20018;-44
2021/12/07 09:41:26;;;;;;;52.97;27.38;;;0.10;99.90;;;;;;5013678;28;20314;-46
2021/12/07 09:43:53;;;;;;;49.67;26.67;;;0.10;99.90;;;;;;5013599;28;20018;-44
2021/12/07 09:46:18;;;;;;;54.72;25.98;;;0.10;99.90;;;;;;5013564;28;20535;-43
2021/12/07 09:48:46;;;;;;;53.00;26.02;;;0.10;99.90;;;;;;5013507;28;20093;-43
2021/12/07 09:51:16;;;;;;;55.75;28.25;;;0.20;99.90;;;;;;5013392;28;20105;-43
2021/12/07 09:53:43;;;;;;;62.15;30.10;;;0.20;99.90;;;;;;5012035;28;20028;-43
2021/12/07 09:56:09;;;;;;;59.10;30.08;;;0.20;99.90;;;;;;5013243;28;20102;-46
2021/12/07 09:58:35;;;;;;;58.25;27.02;;;0.20;99.90;;;;;;5012567;28;20022;-42
2021/12/07 10:01:02;;;;;;;57.97;28.55;;;0.20;99.90;;;;;;5013271;28;20473;-45
2021/12/07 10:03:27;;;;;;;59.88;29.20;;;0.20;99.90;;;;;;4995642;28;20496;-44
2021/12/07 10:05:53;;;;;;;58.85;28.95;;;0.20;99.90;;;;;;5013310;28;20026;-43
2021/12/07 10:08:19;;;;;;;63.35;29.45;;;0.10;99.90;;;;;;5011893;28;20034;-45
2021/12/07 10:10:55;;;;;;;57.25;27.90;;;0.10;99.90;;;;;;5013252;28;20033;-47
2021/12/07 10:13:23;;;;;;;;;;;0.10;99.90;;;;;;5007286;28;20030;-43
2021/12/07 10:15:51;;;;;;;61.15;26.38;;;0.10;99.90;;;;;;5013080;28;20332;-45
2021/12/07 10:18:26;;;;;;;52.47;25.15;;;0.20;99.90;;;;;;5013372;28;20064;-44
2021/12/07 10:20:56;;;;;;;57.83;25.92;;;0.20;99.90;;;;;;5012951;28;20025;-45
2021/12/07 10:23:27;;;;;;;51.78;23.27;;;0.30;99.90;;;;;;5011694;28;20097;-44
2021/12/07 10:25:56;;;;;;;54.50;26.38;;;0.40;99.90;;;;;;5012964;28;20109;-46
2021/12/07 10:28:36;;;;;;;53.40;25.70;;;0.40;99.90;;;;;;5012847;28;20106;-44
2021/12/07 10:31:07;;;;;;;62.45;27.55;;;0.50;99.90;;;;;;5012867;28;20037;-46
2021/12/07 10:33:46;;;;;;;59.28;28.63;;;0.40;99.90;;;;;;5012925;28;20030;-46
2021/12/07 10:36:36;;;;;;;61.63;28.77;;;0.40;99.90;;;;;;5012557;28;20392;-46
2021/12/07 10:39:13;;;;;;;62.30;28.17;;;0.30;99.90;;;;;;5012070;28;20068;-45
2021/12/07 10:41:42;;;;;;;63.08;29.35;;;0.40;99.90;;;;;;5011739;28;20034;-46
2021/12/07 10:44:12;;;;;;;59.70;29.10;;;0.40;99.90;;;;;;5011987;28;20034;-46
2021/12/07 10:46:46;;;;;;;63.03;30.35;;;0.40;99.90;;;;;;5012864;28;20085;-46
2021/12/07 10:49:32;;;;;;;63.70;29.25;;;0.40;99.90;;;;;;5012596;28;20042;-45
2021/12/07 10:52:04;;;;;;;58.25;28.45;;;0.30;99.90;;;;;;5012547;28;20389;-48
2021/12/07 10:54:37;;;;;;;76.13;32.28;;;0.30;99.90;;;;;;5011420;28;20081;-44
2021/12/07 10:57:06;;;;;;;66.75;29.67;;;0.30;99.90;;;;;;5012713;28;20030;-44
2021/12/07 10:59:33;;;;;;;64.82;30.58;;;0.30;99.90;;;;;;5012422;28;20032;-44
2021/12/07 11:01:59;;;;;;;61.40;27.77;;;0.30;99.90;;;;;;5012508;28;20040;-46
2021/12/07 11:04:30;;;;;;;67.03;31.25;;;0.30;99.90;;;;;;5012337;28;20084;-47
2021/12/07 11:07:11;;;;;;;69.55;29.00;;;0.30;99.90;;;;;;5012620;28;20091;-44
2021/12/07 11:09:55;;;;;;;69.15;29.30;;;0.30;99.90;;;;;;5013577;28;20064;-43
2021/12/07 11:12:21;;;;;;;73.78;31.20;;;0.30;99.90;;;;;;5016425;28;20022;-43
2021/12/07 11:14:53;;;;;;;66.13;31.15;;;0.20;99.90;;;;;;5016370;28;20475;-48
2021/12/07 11:17:22;;;;;;;70.63;31.90;;;0.20;99.90;;;;;;5016300;28;20413;-46
2021/12/07 11:19:48;;;;;;;70.15;30.55;;;0.20;99.90;;;;;;5016424;28;20029;-46
2021/12/07 11:22:24;;;;;;;63.55;28.65;;;0.30;99.90;;;;;;5016270;28;20022;-46
2021/12/07 11:24:52;;;;;;;66.10;30.02;;;0.40;99.90;;;;;;5015703;28;20026;-45
2021/12/07 11:30:11;;;;;;;65.35;30.58;;;0.40;99.90;;;;;;5016465;28;20083;-46
2021/12/07 11:32:43;;;;;;;70.57;31.58;;;0.50;99.90;;;;;;5016035;28;20560;-44
2021/12/07 11:35:17;;;;;;;73.63;32.75;;;0.50;99.90;;;;;;5016049;28;20064;-44
2021/12/07 11:37:45;;;;;;;70.75;31.80;;;0.40;99.90;;;;;;5014965;28;20030;-44
2021/12/07 11:40:13;;;;;;;68.00;31.73;;;0.40;99.90;;;;;;5015960;28;20092;-48
2021/12/07 11:42:42;;;;;;;73.60;32.10;;;0.40;99.90;;;;;;5013803;28;20037;-45
2021/12/07 11:45:16;;;;;;;66.68;31.00;;;0.40;99.90;;;;;;5015918;28;20128;-47
2021/12/07 11:47:51;;;;;;;71.63;32.85;;;0.40;99.90;;;;;;5015767;28;20080;-63
2021/12/07 11:50:20;;;;;;;70.82;31.58;;;0.40;99.90;;;;;;5015588;28;20050;-64
2021/12/07 11:52:48;;;;;;;71.10;31.50;;;0.40;99.90;;;;;;5014652;28;20034;-63
2021/12/07 11:55:16;;;;;;;71.80;32.53;;;0.40;99.90;;;;;;5015699;28;20133;-64
2021/12/07 11:57:41;;;;;;;71.32;31.33;;;0.40;99.90;;;;;;5015659;28;20422;-64
2021/12/07 12:00:12;;;;;;;70.53;29.80;;;0.40;99.90;;;;;;5015491;28;20065;-63
2021/12/07 12:02:39;;;;;;;67.15;30.58;;;0.40;99.90;;;;;;5015391;28;20029;-64
2021/12/07 12:05:06;;;;;;;68.03;29.42;;;0.40;99.90;;;;;;5015385;28;20033;-63
2021/12/07 12:07:31;;;;;;;74.63;31.52;;;0.40;99.90;;;;;;5014459;28;20033;-61
2021/12/07 12:09:57;;;;;;;74.15;32.60;;;0.50;99.90;;;;;;5015498;28;20030;-60
2021/12/07 12:13:07;;;;;;;76.10;32.53;;;0.40;99.90;;;;;;5015234;28;20037;-61
2021/12/07 12:16:10;;;;;;;71.50;29.75;;;0.40;99.90;;;;;;5001614;28;20052;-61
2021/12/07 12:18:41;;;;;;;66.63;30.25;;;0.50;99.90;;;;;;5015168;28;20033;-61
2021/12/07 12:21:32;;;;;;;67.13;29.42;;;0.50;99.90;;;;;;5014455;28;20026;-60
2021/12/07 12:24:06;;;;;;;69.28;29.45;;;0.50;99.90;;;;;;5014151;28;20034;-59
2021/12/07 12:26:34;;;;;;;75.95;32.45;;;0.50;99.90;;;;;;5015042;28;20026;-59
2021/12/07 12:29:00;;;;;;;73.88;31.67;;;0.50;99.90;;;;;;5014947;28;20327;-60
2021/12/07 12:31:49;;;;;;;67.45;30.05;;;0.60;99.90;;;;;;5014952;28;20483;-57
2021/12/07 12:34:23;;;;;;;75.32;31.83;;;0.70;99.90;;;;;;5014776;28;20029;-59
2021/12/07 12:37:08;;;;;;;71.53;31.35;;;0.60;99.90;;;;;;5014878;28;20025;-59
2021/12/07 12:39:53;;;;;;;73.90;32.17;;;0.70;99.90;;;;;;5014095;28;20468;-59
2021/12/07 12:42:39;;;;;;;71.55;32.33;;;0.70;99.90;;;;;;5014675;28;20028;-59
2021/12/07 12:45:28;;;;;;;75.25;32.80;;;0.80;99.90;;;;;;5014835;28;20067;-59
2021/12/07 12:48:03;;;;;;;76.40;31.30;;;0.70;99.90;;;;;;5014586;28;20037;-57
2021/12/07 12:50:43;;;;;;;78.20;35.22;;;0.70;99.90;;;;;;5014544;28;20096;-56
2021/12/07 12:53:16;;;;;;;85.57;34.97;;;0.70;99.90;;;;;;5013711;28;20053;-59
2021/12/07 12:55:48;;;;;;;82.30;34.17;;;0.70;99.90;;;;;;5014510;28;20030;-59
2021/12/07 12:58:28;;;;;;;78.15;33.33;;;0.70;99.90;;;;;;5014739;28;20100;-60
2021/12/07 13:01:12;;;;;;;78.00;32.53;;;0.70;99.90;;;;;;4997046;28;20477;-59
2021/12/07 13:03:47;;;;;;;79.13;33.55;;;0.70;99.90;;;;;;5014013;28;20026;-60
2021/12/07 13:06:22;;;;;;;74.20;32.50;;;0.80;99.90;;;;;;5014403;28;20053;-59
2021/12/07 13:09:09;;;;;;;62.80;25.97;;;0.80;99.90;;;;;;5022226;28;20108;-59
2021/12/07 13:11:42;;;;;;;81.55;34.15;;;0.80;99.90;;;;;;5034146;28;20392;-60
2021/12/07 13:14:23;;;;;;;79.20;32.40;;;0.80;99.90;;;;;;5033868;28;20117;-57
2021/12/07 13:16:52;;;;;;;77.05;32.78;;;0.80;99.90;;;;;;5015929;28;20064;-59
2021/12/07 13:19:18;;;;;;;83.55;35.10;;;0.80;99.90;;;;;;5034023;28;20063;-58
2021/12/07 13:21:45;;;;;;;77.65;33.05;;;0.80;99.90;;;;;;5034746;28;20025;-60
2021/12/07 13:24:18;;;;;;;80.32;34.95;;;0.80;99.90;;;;;;5032852;28;20030;-60
2021/12/07 13:26:51;;;;;;;73.15;34.03;;;0.90;99.90;;;;;;5033825;28;20029;-60
2021/12/07 13:29:20;;;;;;;73.70;31.63;;;0.90;99.90;;;;;;5016173;28;20029;-58
2021/12/07 13:31:51;;;;;;;74.15;32.45;;;1.00;99.90;;;;;;5033471;28;20119;-60
2021/12/07 13:34:29;;;;;;;80.50;33.45;;;1.00;99.90;;;;;;5033529;28;20100;-59
2021/12/07 13:36:58;;;;;;;84.03;35.58;;;1.00;99.90;;;;;;5033329;28;20068;-59
2021/12/07 13:39:24;;;;;;;75.82;32.38;;;1.00;99.90;;;;;;5032652;28;20025;-59
2021/12/07 13:42:02;;;;;;;78.72;34.10;;;1.00;99.90;;;;;;5033570;28;20424;-60
2021/12/07 13:44:36;;;;;;;75.55;32.47;;;0.90;99.90;;;;;;5033457;28;20021;-59
2021/12/07 13:47:10;;;;;;;66.72;29.35;;;0.90;99.90;;;;;;5033471;28;20022;-60
2021/12/07 13:49:35;;;;;;;74.60;31.73;;;0.90;99.90;;;;;;5033366;28;20488;-60
2021/12/07 13:52:07;;;;;;;70.07;29.92;;;1.00;99.90;;;;;;5033383;28;20060;-60
2021/12/07 13:54:39;;;;;;;72.28;29.95;;;1.00;99.90;;;;;;5032106;28;20040;-60
2021/12/07 13:57:05;;;;;;;69.78;29.40;;;0.90;99.90;;;;;;5033630;28;20017;-59
2021/12/07 13:59:31;;;;;;;69.72;31.00;;;0.90;99.90;;;;;;5032948;28;20487;-60
2021/12/07 14:01:58;;;;;;;67.63;29.95;;;0.90;99.90;;;;;;5032989;28;20029;-59
2021/12/07 14:04:29;;;;;;;76.72;31.88;;;1.00;99.90;;;;;;5014174;28;20113;-57
2021/12/07 14:06:55;;;;;;;76.05;32.28;;;0.90;99.90;;;;;;5013176;28;20038;-59
2021/12/07 14:09:22;;;;;;;69.60;30.75;;;1.00;99.90;;;;;;5025727;28;20029;-58
2021/12/07 14:11:59;;;;;;;71.43;29.52;;;0.90;99.90;;;;;;5033006;28;20074;-58
2021/12/07 14:14:28;;;;;;;75.53;30.00;;;1.00;99.90;;;;;;5032561;28;20047;-59